Time;durP1;ratioP1;P1;durP2;ratioP2;P2;SDS_P1;SDS_P2;PMS_P1;PMS_P2;Temp;Humidity;BMP_temperature;BMP_pressure;BME280_temperature;BME280_humidity;BME280_pressure;Samples;Min_cycle;Max_cycle;Signal;HPM_P1;HPM_P2
2022/04/12 00:00:31;;;;;;;7.53;4.03;;;11.90;75.00;;;;;;5050574;28;20491;-35
2022/04/12 00:02:58;;;;;;;5.17;3.70;;;11.80;74.70;;;;;;5053061;28;20235;-37
2022/04/12 00:05:24;;;;;;;7.27;4.60;;;11.80;74.50;;;;;;5076328;28;20429;-34
2022/04/12 00:07:50;;;;;;;5.30;4.23;;;11.80;74.60;;;;;;5050283;28;20421;-36
2022/04/12 00:10:16;;;;;;;4.60;3.93;;;11.80;75.20;;;;;;5055109;28;20866;-34
2022/04/12 00:12:42;;;;;;;5.60;3.93;;;11.90;76.40;;;;;;5055163;28;20508;-39
2022/04/12 00:15:09;;;;;;;4.23;3.83;;;11.80;76.80;;;;;;5051038;28;20204;-38
2022/04/12 00:20:21;;;;;;;5.23;4.30;;;11.70;77.00;;;;;;5065131;28;20466;-39
2022/04/12 00:22:47;;;;;;;4.90;4.40;;;11.80;77.50;;;;;;5062658;28;20416;-36
2022/04/12 00:25:13;;;;;;;5.00;4.03;;;11.70;77.30;;;;;;5054526;28;20818;-39
2022/04/12 00:27:40;;;;;;;4.60;4.13;;;11.60;78.20;;;;;;5057452;28;20922;-38
2022/04/12 00:30:08;;;;;;;5.20;3.67;;;11.50;78.30;;;;;;5070119;28;20781;-38
2022/04/12 00:32:35;;;;;;;6.10;4.00;;;11.70;78.40;;;;;;5066369;28;20526;-37
2022/04/12 00:35:01;;;;;;;6.30;4.13;;;11.60;78.40;;;;;;5070857;28;20427;-36
2022/04/12 00:37:27;;;;;;;4.73;4.27;;;11.60;78.90;;;;;;5050492;28;20435;-33
2022/04/12 00:39:53;;;;;;;4.60;4.10;;;11.60;79.10;;;;;;5049792;28;20456;-35
2022/04/12 00:42:19;;;;;;;6.00;4.00;;;11.60;79.20;;;;;;5063367;28;20181;-36
2022/04/12 00:44:45;;;;;;;4.90;4.20;;;11.60;79.10;;;;;;5050390;28;20461;-39
2022/04/12 00:47:11;;;;;;;5.47;4.13;;;11.60;80.50;;;;;;5051037;28;20935;-34
2022/04/12 00:49:36;;;;;;;6.33;4.20;;;11.70;81.60;;;;;;5057908;28;20429;-33
2022/04/12 00:52:04;;;;;;;5.63;4.00;;;11.60;81.20;;;;;;5054034;28;20336;-37
2022/04/12 00:54:32;;;;;;;7.87;3.73;;;11.40;82.30;;;;;;5049652;28;20185;-34
2022/04/12 00:56:58;;;;;;;5.90;4.30;;;11.50;82.00;;;;;;5058870;28;20962;-38
2022/04/12 00:59:25;;;;;;;5.40;3.90;;;11.50;81.80;;;;;;5048686;28;20472;-40
2022/04/12 01:01:51;;;;;;;6.20;4.90;;;11.60;82.80;;;;;;5047780;28;20605;-39
2022/04/12 01:04:17;;;;;;;4.50;4.10;;;11.50;83.50;;;;;;5053073;28;20454;-36
2022/04/12 01:06:44;;;;;;;4.80;3.60;;;11.40;83.90;;;;;;5068623;28;20446;-38
2022/04/12 01:09:10;;;;;;;6.60;3.80;;;11.30;85.60;;;;;;5049784;28;21124;-39
2022/04/12 01:11:37;;;;;;;5.47;3.80;;;11.30;87.80;;;;;;5054085;28;20975;-37
2022/04/12 01:14:03;;;;;;;5.40;3.93;;;11.10;89.20;;;;;;5049723;28;20424;-38
2022/04/12 01:16:29;;;;;;;4.80;4.27;;;11.10;88.70;;;;;;5057742;28;20431;-36
2022/04/12 01:18:55;;;;;;;6.37;4.10;;;11.10;86.40;;;;;;5062253;28;20440;-39
2022/04/12 01:21:21;;;;;;;5.17;3.90;;;11.20;86.10;;;;;;5068159;28;20766;-34
2022/04/12 01:24:05;;;;;;;4.87;4.43;;;11.50;84.90;;;;;;5054107;28;20202;-38
2022/04/12 01:26:32;;;;;;;4.47;3.97;;;11.40;84.50;;;;;;5049715;28;20519;-39
2022/04/12 01:28:58;;;;;;;4.63;4.23;;;11.40;84.40;;;;;;5049598;28;20417;-37
2022/04/12 01:31:25;;;;;;;5.67;4.00;;;11.30;84.30;;;;;;5048844;28;20412;-37
2022/04/12 01:33:52;;;;;;;5.37;4.53;;;11.30;84.40;;;;;;5064453;28;20840;-35
2022/04/12 01:36:18;;;;;;;4.30;3.83;;;11.40;84.50;;;;;;5066152;28;20487;-33
2022/04/12 01:38:43;;;;;;;6.70;3.97;;;11.30;85.90;;;;;;5049353;28;20413;-38
2022/04/12 01:41:09;;;;;;;6.03;4.20;;;11.30;85.70;;;;;;5055389;28;20439;-36
2022/04/12 01:43:35;;;;;;;4.10;3.50;;;11.40;86.40;;;;;;5052280;28;20243;-40
2022/04/12 01:46:01;;;;;;;4.43;4.03;;;11.20;86.60;;;;;;5049481;28;20182;-37
2022/04/12 01:48:27;;;;;;;4.57;4.13;;;11.20;86.50;;;;;;5053189;28;20478;-39
2022/04/12 01:50:53;;;;;;;4.20;3.77;;;11.00;87.30;;;;;;5060607;28;20185;-37
2022/04/12 01:53:18;;;;;;;5.37;4.73;;;11.20;88.30;;;;;;5053494;28;20181;-35
2022/04/12 01:55:44;;;;;;;4.77;4.10;;;11.00;87.80;;;;;;5051768;28;20934;-37
2022/04/12 01:58:10;;;;;;;7.40;4.23;;;10.90;88.40;;;;;;5051933;28;20230;-38
2022/04/12 02:00:36;;;;;;;4.47;3.93;;;10.90;89.90;;;;;;5048607;28;20236;-34
2022/04/12 02:03:03;;;;;;;4.57;4.10;;;11.00;88.80;;;;;;5053006;28;20275;-37
2022/04/12 02:05:29;;;;;;;6.10;4.07;;;11.10;88.60;;;;;;5075461;28;20418;-38
2022/04/12 02:07:55;;;;;;;5.17;4.37;;;11.20;89.10;;;;;;5052215;28;20503;-33
2022/04/12 02:10:22;;;;;;;4.83;4.30;;;11.00;89.10;;;;;;5048450;28;20514;-35
2022/04/12 02:12:51;;;;;;;6.37;4.30;;;11.10;89.70;;;;;;5050144;28;20484;-37
2022/04/12 02:15:17;;;;;;;3.83;3.53;;;10.90;89.50;;;;;;5048884;28;20459;-39
2022/04/12 02:17:43;;;;;;;4.00;3.60;;;10.90;90.00;;;;;;5062405;28;20942;-40
2022/04/12 02:20:09;;;;;;;6.37;4.47;;;10.90;90.10;;;;;;5062845;28;20462;-39
2022/04/12 02:22:36;;;;;;;4.27;3.87;;;10.80;89.90;;;;;;5064196;28;20190;-37
2022/04/12 02:25:03;;;;;;;5.73;4.13;;;10.80;89.70;;;;;;5053053;28;20428;-38
2022/04/12 02:27:29;;;;;;;5.70;3.80;;;10.80;89.30;;;;;;5059016;28;20435;-36
2022/04/12 02:29:54;;;;;;;3.97;3.43;;;10.90;89.00;;;;;;5048359;28;20432;-39
2022/04/12 02:32:20;;;;;;;5.40;3.83;;;10.70;90.00;;;;;;5046650;28;20190;-36
2022/04/12 02:34:46;;;;;;;5.60;3.77;;;10.80;89.30;;;;;;5066712;28;20185;-37
2022/04/12 02:37:11;;;;;;;6.97;4.30;;;10.90;88.60;;;;;;5067018;28;20181;-39
2022/04/12 02:39:37;;;;;;;4.00;3.50;;;10.80;89.20;;;;;;5048278;28;20201;-36
2022/04/12 02:42:03;;;;;;;5.73;4.13;;;11.00;89.40;;;;;;5053149;28;20202;-35
2022/04/12 02:44:28;;;;;;;4.40;3.80;;;10.80;88.90;;;;;;5047245;28;20204;-35
2022/04/12 02:46:54;;;;;;;6.73;3.87;;;11.00;88.80;;;;;;5048583;28;20427;-37
2022/04/12 02:49:20;;;;;;;4.27;3.57;;;10.90;88.80;;;;;;5062232;28;20200;-37
2022/04/12 02:51:46;;;;;;;5.83;4.10;;;10.90;88.90;;;;;;5062961;28;20264;-38
2022/04/12 02:54:12;;;;;;;4.00;3.60;;;11.00;89.30;;;;;;5057424;28;20277;-34
2022/04/12 02:56:38;;;;;;;4.00;3.60;;;11.00;89.00;;;;;;5050360;28;20564;-36
2022/04/12 02:59:04;;;;;;;4.57;3.53;;;11.00;88.80;;;;;;5048516;28;20420;-38
2022/04/12 03:01:30;;;;;;;4.73;4.00;;;11.10;89.30;;;;;;5047758;28;20189;-35
2022/04/12 03:03:56;;;;;;;5.57;3.70;;;11.00;89.40;;;;;;5060120;28;20431;-37
2022/04/12 03:06:22;;;;;;;6.33;3.60;;;11.20;89.50;;;;;;5072044;28;20451;-34
2022/04/12 03:08:48;;;;;;;4.43;4.03;;;11.00;88.80;;;;;;5047136;28;20660;-35
2022/04/12 03:11:13;;;;;;;6.43;4.50;;;11.00;89.10;;;;;;5050091;28;21003;-35
2022/04/12 03:13:39;;;;;;;3.90;3.50;;;11.10;89.20;;;;;;5057603;28;20186;-35
2022/04/12 03:16:05;;;;;;;5.13;3.83;;;11.10;89.70;;;;;;5052960;28;20427;-37
2022/04/12 03:18:31;;;;;;;5.03;3.73;;;11.10;88.80;;;;;;5061744;28;20841;-32
2022/04/12 03:20:56;;;;;;;4.80;4.07;;;11.30;88.70;;;;;;5060545;28;20207;-38
2022/04/12 03:23:22;;;;;;;5.13;4.07;;;11.30;88.50;;;;;;5067457;28;20216;-34
2022/04/12 03:25:50;;;;;;;5.87;4.00;;;11.20;88.40;;;;;;5053414;28;20209;-33
2022/04/12 03:28:16;;;;;;;5.00;3.60;;;11.40;88.10;;;;;;5057281;28;20185;-33
2022/04/12 03:30:42;;;;;;;5.20;4.30;;;11.40;87.70;;;;;;5051027;28;20432;-36
2022/04/12 03:33:08;;;;;;;5.80;4.30;;;11.30;87.80;;;;;;5051305;28;20977;-33
2022/04/12 03:35:34;;;;;;;5.67;3.80;;;11.40;88.10;;;;;;5055949;28;20190;-36
2022/04/12 03:38:01;;;;;;;5.00;4.00;;;11.60;88.80;;;;;;5072898;28;20428;-35
2022/04/12 03:40:31;;;;;;;7.77;4.00;;;11.40;88.90;;;;;;5050952;28;20554;-37
2022/04/12 03:43:01;;;;;;;5.13;3.80;;;11.40;88.90;;;;;;5052769;28;20420;-35
2022/04/12 03:45:27;;;;;;;5.23;3.90;;;11.40;89.00;;;;;;5049833;28;20431;-38
2022/04/12 03:47:53;;;;;;;5.30;3.53;;;11.40;89.50;;;;;;5049922;28;20413;-37
2022/04/12 03:50:19;;;;;;;3.50;3.20;;;11.20;89.10;;;;;;5063882;28;20443;-34
2022/04/12 03:52:45;;;;;;;5.53;4.20;;;11.60;89.60;;;;;;5067819;28;20269;-35
2022/04/12 03:55:11;;;;;;;5.30;3.83;;;11.30;89.10;;;;;;5051645;28;20750;-36
2022/04/12 03:57:36;;;;;;;5.27;4.03;;;11.50;89.20;;;;;;5051641;28;20556;-36
2022/04/12 04:00:08;;;;;;;6.60;4.47;;;11.40;88.50;;;;;;5049241;28;20471;-39
2022/04/12 04:02:36;;;;;;;4.30;3.90;;;11.50;89.30;;;;;;5049916;28;20478;-36
2022/04/12 04:05:02;;;;;;;4.40;3.93;;;11.50;88.80;;;;;;5066845;28;20799;-34
2022/04/12 04:07:28;;;;;;;7.87;4.40;;;11.60;88.90;;;;;;5062217;28;20455;-36
2022/04/12 04:09:54;;;;;;;4.70;3.80;;;11.40;87.90;;;;;;5050901;28;20778;-39
2022/04/12 04:12:20;;;;;;;4.00;3.60;;;11.50;88.10;;;;;;5058129;28;20514;-35
2022/04/12 04:14:47;;;;;;;5.13;4.03;;;11.60;88.80;;;;;;5051203;28;21068;-36
2022/04/12 04:17:13;;;;;;;4.60;3.97;;;11.50;87.90;;;;;;5065016;28;20185;-36
2022/04/12 04:19:39;;;;;;;4.60;3.67;;;11.50;87.50;;;;;;5070276;28;20796;-36
2022/04/12 04:22:05;;;;;;;4.77;3.67;;;11.50;88.10;;;;;;5077366;28;20945;-36
2022/04/12 04:24:31;;;;;;;4.83;4.00;;;11.50;87.80;;;;;;5055327;28;20443;-38
2022/04/12 04:26:57;;;;;;;4.20;3.70;;;11.40;87.70;;;;;;5054771;28;20188;-35
2022/04/12 04:29:24;;;;;;;5.37;4.07;;;11.70;88.30;;;;;;5050238;28;20430;-38
2022/04/12 04:31:51;;;;;;;4.60;3.97;;;11.60;88.20;;;;;;5050106;28;20980;-38
2022/04/12 04:34:17;;;;;;;6.07;4.27;;;11.50;88.40;;;;;;5060202;28;20441;-39
2022/04/12 04:36:43;;;;;;;5.47;3.90;;;11.80;88.50;;;;;;5078328;28;20555;-36
2022/04/12 04:39:08;;;;;;;5.30;3.40;;;11.60;88.30;;;;;;5050523;28;20428;-36
2022/04/12 04:41:34;;;;;;;9.97;3.87;;;11.60;88.20;;;;;;5052108;28;20193;-32
2022/04/12 04:44:00;;;;;;;7.10;4.30;;;11.70;88.60;;;;;;5067008;28;20176;-35
2022/04/12 04:46:26;;;;;;;4.70;3.43;;;11.80;88.90;;;;;;5060426;28;20174;-39
2022/04/12 04:48:52;;;;;;;6.47;3.67;;;11.50;88.60;;;;;;5070776;28;21013;-39
2022/04/12 04:51:18;;;;;;;4.23;3.23;;;11.60;88.60;;;;;;5073304;28;20418;-36
2022/04/12 04:53:49;;;;;;;4.90;3.53;;;11.60;88.80;;;;;;5063813;28;20668;-38
2022/04/12 04:56:15;;;;;;;4.30;3.70;;;11.70;89.20;;;;;;5069362;28;20205;-36
2022/04/12 04:58:41;;;;;;;6.17;4.10;;;11.60;89.60;;;;;;5051760;28;20848;-34
2022/04/12 05:01:07;;;;;;;4.87;3.67;;;11.50;89.60;;;;;;5049722;28;20213;-38
2022/04/12 05:03:32;;;;;;;4.40;3.40;;;11.60;89.80;;;;;;5048499;28;20264;-36
2022/04/12 05:05:58;;;;;;;4.17;3.10;;;11.70;90.10;;;;;;5070612;28;20557;-39
2022/04/12 05:08:24;;;;;;;3.47;2.90;;;11.60;90.30;;;;;;5070711;28;20188;-37
2022/04/12 05:10:50;;;;;;;4.00;3.60;;;11.60;90.30;;;;;;5053731;28;20190;-37
2022/04/12 05:13:16;;;;;;;7.90;3.30;;;11.60;90.50;;;;;;5054033;28;20661;-38
2022/04/12 05:15:42;;;;;;;4.53;3.63;;;11.60;90.70;;;;;;5051335;28;20466;-34
2022/04/12 05:18:08;;;;;;;4.97;3.97;;;11.80;90.90;;;;;;5070043;28;20431;-38
2022/04/12 05:20:34;;;;;;;4.13;3.03;;;11.60;91.10;;;;;;5068863;28;20476;-36
2022/04/12 05:23:00;;;;;;;3.67;3.00;;;11.60;91.20;;;;;;5070064;28;20420;-36
2022/04/12 05:25:25;;;;;;;5.00;3.40;;;11.50;91.20;;;;;;5053353;28;20549;-36
2022/04/12 05:27:51;;;;;;;4.60;3.03;;;11.70;91.40;;;;;;5057791;28;20185;-38
2022/04/12 05:30:17;;;;;;;6.13;3.30;;;11.70;91.70;;;;;;5053966;28;20185;-36
2022/04/12 05:32:44;;;;;;;5.00;3.00;;;11.80;92.00;;;;;;5049874;28;20181;-36
2022/04/12 05:35:11;;;;;;;4.30;3.90;;;11.70;92.00;;;;;;5057050;28;20457;-39
2022/04/12 05:37:47;;;;;;;4.70;2.80;;;11.70;92.00;;;;;;5082056;28;20430;-37
2022/04/12 05:40:13;;;;;;;3.30;2.83;;;11.80;92.10;;;;;;5048347;28;20471;-36
2022/04/12 05:42:40;;;;;;;2.63;2.43;;;11.80;92.20;;;;;;5054746;28;20424;-39
2022/04/12 05:45:07;;;;;;;3.80;3.17;;;11.80;92.30;;;;;;5052593;28;20467;-36
2022/04/12 05:47:53;;;;;;;3.60;3.20;;;11.80;92.30;;;;;;5071617;28;20510;-33
2022/04/12 05:50:23;;;;;;;3.90;3.13;;;11.80;92.40;;;;;;5058237;28;20446;-37
2022/04/12 05:52:50;;;;;;;3.10;2.80;;;11.80;92.90;;;;;;5071271;28;20779;-38
2022/04/12 05:55:21;;;;;;;4.53;2.73;;;11.90;92.20;;;;;;5055899;28;20435;-34
2022/04/12 05:57:49;;;;;;;4.30;3.27;;;12.00;92.30;;;;;;5066013;28;20420;-34
2022/04/12 06:00:15;;;;;;;3.80;2.73;;;12.20;92.40;;;;;;5048601;28;20517;-33
2022/04/12 06:02:41;;;;;;;3.90;3.27;;;12.10;92.20;;;;;;5049063;28;20428;-38
2022/04/12 06:05:07;;;;;;;2.97;2.67;;;12.30;91.90;;;;;;5047298;28;21111;-33
2022/04/12 06:07:34;;;;;;;3.30;2.70;;;12.50;91.80;;;;;;5065102;28;20258;-36
2022/04/12 06:10:01;;;;;;;5.47;2.77;;;12.70;91.40;;;;;;5070957;28;20594;-36
2022/04/12 06:12:28;;;;;;;3.80;2.80;;;12.70;91.40;;;;;;5068087;28;20430;-33
2022/04/12 06:14:54;;;;;;;3.20;2.80;;;12.80;91.50;;;;;;5059973;28;20439;-32
2022/04/12 06:17:21;;;;;;;4.43;2.80;;;12.70;91.30;;;;;;5083087;28;20505;-35
2022/04/12 06:19:46;;;;;;;3.23;2.60;;;12.60;90.90;;;;;;5056620;28;20571;-34
2022/04/12 06:22:12;;;;;;;2.57;2.37;;;12.70;91.20;;;;;;5063710;28;20503;-38
2022/04/12 06:24:39;;;;;;;3.23;2.70;;;12.80;90.90;;;;;;5068947;28;20758;-37
2022/04/12 06:27:05;;;;;;;3.80;3.00;;;13.10;91.00;;;;;;5046871;28;20188;-36
2022/04/12 06:29:32;;;;;;;3.73;3.30;;;13.20;90.10;;;;;;5060971;28;20423;-35
2022/04/12 06:31:58;;;;;;;3.67;2.53;;;13.20;90.20;;;;;;5053347;28;20424;-38
2022/04/12 06:34:24;;;;;;;3.53;2.97;;;13.20;90.20;;;;;;5048254;28;20440;-39
2022/04/12 06:36:49;;;;;;;5.37;3.00;;;13.20;90.00;;;;;;5060055;28;20485;-36
2022/04/12 06:39:15;;;;;;;6.40;2.93;;;13.30;89.70;;;;;;5056799;28;20220;-37
2022/04/12 06:41:41;;;;;;;4.17;2.83;;;13.30;90.50;;;;;;5048150;28;20178;-36
2022/04/12 06:44:07;;;;;;;3.00;2.73;;;13.40;90.10;;;;;;5054892;28;20239;-36
2022/04/12 06:46:32;;;;;;;3.10;2.80;;;13.60;89.40;;;;;;5048676;28;20808;-36
2022/04/12 06:48:58;;;;;;;4.43;3.30;;;13.80;88.10;;;;;;5054891;28;20291;-38
2022/04/12 06:51:24;;;;;;;4.23;3.17;;;14.00;87.10;;;;;;5056082;28;20985;-36
2022/04/12 06:53:50;;;;;;;3.30;3.00;;;14.20;86.80;;;;;;5068363;28;20258;-37
2022/04/12 06:56:17;;;;;;;4.77;3.70;;;14.30;86.70;;;;;;5066589;28;20688;-38
2022/04/12 06:58:43;;;;;;;3.27;2.90;;;14.30;85.50;;;;;;5067218;28;20821;-34
2022/04/12 07:01:09;;;;;;;3.87;3.43;;;14.40;86.20;;;;;;5055653;28;20463;-37
2022/04/12 07:03:35;;;;;;;3.70;2.90;;;14.40;85.80;;;;;;5059998;28;21352;-39
2022/04/12 07:06:01;;;;;;;4.87;3.17;;;14.50;86.10;;;;;;5068157;28;20450;-33
2022/04/12 07:08:27;;;;;;;4.63;3.10;;;14.50;85.30;;;;;;5082530;28;20461;-38
2022/04/12 07:10:52;;;;;;;4.70;3.60;;;14.50;84.30;;;;;;5061678;28;20454;-36
2022/04/12 07:13:19;;;;;;;3.80;3.37;;;14.50;84.20;;;;;;5058350;28;20185;-37
2022/04/12 07:15:46;;;;;;;3.70;3.10;;;14.50;84.80;;;;;;5053491;28;20190;-35
2022/04/12 07:18:12;;;;;;;3.50;2.93;;;14.50;85.40;;;;;;5071648;28;20434;-36
2022/04/12 07:20:37;;;;;;;3.93;3.20;;;14.60;85.10;;;;;;5062441;28;20471;-38
2022/04/12 07:23:03;;;;;;;4.87;3.20;;;14.60;84.20;;;;;;5078237;28;20766;-39
2022/04/12 07:25:29;;;;;;;4.70;3.10;;;14.60;84.60;;;;;;5055444;28;20186;-37
2022/04/12 07:27:55;;;;;;;4.07;3.33;;;14.60;84.40;;;;;;5052337;28;20463;-39
2022/04/12 07:30:21;;;;;;;3.90;2.73;;;14.60;85.00;;;;;;5055318;28;20197;-39
2022/04/12 07:32:46;;;;;;;3.80;3.20;;;14.70;84.60;;;;;;5051548;28;20189;-38
2022/04/12 07:35:12;;;;;;;4.13;3.13;;;14.80;84.30;;;;;;5054238;28;20219;-38
2022/04/12 07:37:42;;;;;;;3.70;3.10;;;14.90;84.10;;;;;;5074218;28;20220;-39
2022/04/12 07:40:08;;;;;;;5.47;3.33;;;14.80;82.60;;;;;;5058311;28;20216;-37
2022/04/12 07:42:34;;;;;;;3.40;3.10;;;14.80;83.10;;;;;;5051008;28;20424;-38
2022/04/12 07:45:00;;;;;;;4.63;3.43;;;14.90;83.20;;;;;;5052093;28;20443;-37
2022/04/12 07:47:26;;;;;;;4.40;3.20;;;14.90;82.70;;;;;;5051223;28;20193;-38
2022/04/12 07:49:51;;;;;;;5.13;3.43;;;15.00;83.00;;;;;;5048211;28;20186;-39
2022/04/12 07:52:17;;;;;;;3.40;2.80;;;15.00;82.70;;;;;;5060503;28;20194;-34
2022/04/12 07:54:43;;;;;;;3.33;2.77;;;15.00;82.50;;;;;;5059501;28;20684;-35
2022/04/12 07:57:08;;;;;;;4.20;2.70;;;15.00;83.30;;;;;;5050803;28;20213;-39
2022/04/12 07:59:34;;;;;;;3.50;2.87;;;15.10;82.60;;;;;;5060442;28;20249;-34
2022/04/12 08:02:00;;;;;;;3.50;2.30;;;15.20;83.40;;;;;;5050417;28;20217;-40
2022/04/12 08:04:25;;;;;;;3.63;2.60;;;15.30;83.30;;;;;;5046748;28;20189;-38
2022/04/12 08:06:51;;;;;;;6.07;2.97;;;15.40;83.10;;;;;;5052629;28;20186;-36
2022/04/12 08:09:17;;;;;;;2.60;2.27;;;15.50;83.00;;;;;;5069470;28;20243;-35
2022/04/12 08:11:42;;;;;;;2.20;1.93;;;15.50;83.30;;;;;;5050313;28;20190;-39
2022/04/12 08:14:08;;;;;;;2.53;2.10;;;15.70;83.50;;;;;;5056006;28;20189;-36
2022/04/12 08:16:34;;;;;;;2.00;1.53;;;15.80;82.80;;;;;;5050814;28;20193;-36
2022/04/12 08:19:00;;;;;;;3.27;2.00;;;15.80;82.90;;;;;;5050319;28;20805;-35
2022/04/12 08:21:39;;;;;;;4.57;1.90;;;16.00;83.50;;;;;;5050315;28;20246;-35
2022/04/12 08:24:06;;;;;;;3.97;2.07;;;16.00;82.90;;;;;;5063956;28;20794;-38
2022/04/12 08:26:32;;;;;;;2.40;1.70;;;16.00;82.50;;;;;;5059473;28;20767;-33
2022/04/12 08:28:58;;;;;;;3.83;2.20;;;16.10;83.30;;;;;;5051922;28;20419;-33
2022/04/12 08:31:24;;;;;;;2.37;2.17;;;16.10;82.60;;;;;;5049707;28;20209;-37
2022/04/12 08:33:50;;;;;;;2.13;1.80;;;16.20;82.20;;;;;;5050354;28;20201;-37
2022/04/12 08:36:16;;;;;;;1.87;1.60;;;16.20;82.50;;;;;;5058488;28;20436;-39
2022/04/12 08:38:45;;;;;;;2.67;2.00;;;16.30;82.40;;;;;;5068069;28;20481;-34
2022/04/12 08:41:14;;;;;;;2.30;2.00;;;16.30;81.90;;;;;;5054629;28;20472;-35
2022/04/12 08:43:41;;;;;;;2.53;2.33;;;16.40;82.70;;;;;;5052238;28;20436;-32
2022/04/12 08:46:08;;;;;;;3.27;1.80;;;16.40;82.30;;;;;;5058670;28;20903;-35
2022/04/12 08:48:34;;;;;;;2.07;1.87;;;16.50;81.30;;;;;;5049958;28;20420;-37
2022/04/12 08:51:01;;;;;;;2.70;2.40;;;16.50;80.30;;;;;;5055186;28;20442;-37
2022/04/12 08:53:28;;;;;;;2.53;2.13;;;16.60;79.40;;;;;;5061351;28;20429;-37
2022/04/12 08:55:55;;;;;;;3.67;2.00;;;16.60;79.00;;;;;;5059314;28;21157;-33
2022/04/12 08:58:21;;;;;;;2.50;1.80;;;16.70;79.20;;;;;;5049121;28;20434;-33
2022/04/12 09:00:47;;;;;;;4.40;1.90;;;16.70;79.40;;;;;;5056175;28;20508;-34
2022/04/12 09:03:16;;;;;;;3.50;2.33;;;16.90;81.60;;;;;;5049421;28;20508;-34
2022/04/12 09:05:42;;;;;;;2.77;1.90;;;17.00;81.50;;;;;;5048876;28;20432;-38
2022/04/12 09:08:24;;;;;;;2.90;2.10;;;17.00;78.50;;;;;;5073679;28;20423;-36
2022/04/12 09:10:57;;;;;;;3.40;1.97;;;17.10;78.10;;;;;;5056174;28;20427;-35
2022/04/12 09:13:23;;;;;;;3.00;1.80;;;17.20;78.60;;;;;;5049375;28;20420;-36
2022/04/12 09:15:49;;;;;;;2.10;1.70;;;17.30;78.10;;;;;;5051985;28;20428;-36
2022/04/12 09:18:41;;;;;;;2.50;1.97;;;17.40;76.80;;;;;;5049278;28;20288;-37
2022/04/12 09:21:21;;;;;;;3.23;1.80;;;17.50;76.70;;;;;;5060237;28;20806;-34
2022/04/12 09:23:49;;;;;;;3.50;2.13;;;17.70;78.30;;;;;;5072724;28;20909;-36
2022/04/12 09:26:23;;;;;;;4.10;2.10;;;17.80;77.00;;;;;;5057471;28;20478;-38
2022/04/12 09:28:51;;;;;;;3.47;2.20;;;17.90;76.50;;;;;;5050933;28;21043;-38
2022/04/12 09:31:18;;;;;;;4.43;1.77;;;18.00;76.20;;;;;;5056779;28;20493;-36
2022/04/12 09:33:48;;;;;;;2.33;1.70;;;18.00;76.80;;;;;;5049052;28;20431;-34
2022/04/12 09:36:14;;;;;;;2.70;1.90;;;18.20;77.20;;;;;;5048463;28;20443;-36
2022/04/12 09:38:42;;;;;;;2.50;1.90;;;18.30;75.60;;;;;;5070303;28;20420;-39
2022/04/12 09:41:23;;;;;;;2.53;1.77;;;18.50;76.00;;;;;;5059592;28;20468;-36
2022/04/12 09:44:08;;;;;;;2.87;1.70;;;18.60;74.80;;;;;;5050141;28;20432;-36
2022/04/12 09:46:39;;;;;;;3.27;2.30;;;18.70;75.60;;;;;;5052555;28;20429;-36
2022/04/12 09:49:08;;;;;;;2.80;1.90;;;18.80;73.80;;;;;;5048547;28;20427;-39
2022/04/12 09:51:37;;;;;;;2.60;1.63;;;18.90;74.40;;;;;;5052258;28;20505;-37
2022/04/12 09:54:08;;;;;;;2.30;2.10;;;19.00;74.40;;;;;;5058190;28;21001;-34
2022/04/12 09:56:36;;;;;;;2.23;2.00;;;19.00;72.10;;;;;;5063973;28;20934;-37
2022/04/12 09:59:06;;;;;;;3.40;1.80;;;19.10;72.60;;;;;;5050762;28;20424;-39
2022/04/12 10:01:39;;;;;;;1.83;1.73;;;19.20;73.40;;;;;;5048622;28;20481;-38
2022/04/12 10:04:10;;;;;;;2.30;2.10;;;19.30;71.80;;;;;;5047090;28;20870;-39
2022/04/12 10:06:41;;;;;;;3.10;2.20;;;19.40;70.30;;;;;;5054065;28;20438;-39
2022/04/12 10:09:11;;;;;;;2.87;1.97;;;19.50;69.40;;;;;;5069095;28;20495;-37
2022/04/12 10:11:38;;;;;;;5.20;1.80;;;19.40;66.70;;;;;;5046270;28;20425;-36
2022/04/12 10:14:05;;;;;;;1.80;1.50;;;19.40;67.20;;;;;;5048780;28;20531;-39
2022/04/12 10:16:31;;;;;;;4.70;2.17;;;19.40;67.00;;;;;;5048748;28;20427;-37
2022/04/12 10:19:00;;;;;;;5.13;2.63;;;19.50;67.40;;;;;;5047985;28;20493;-32
2022/04/12 10:21:26;;;;;;;4.63;2.27;;;19.70;69.00;;;;;;5047190;28;20475;-37
2022/04/12 10:23:55;;;;;;;4.30;1.90;;;19.80;67.90;;;;;;5058724;28;20462;-36
2022/04/12 10:26:23;;;;;;;4.07;2.53;;;19.90;66.60;;;;;;5052371;28;20428;-37
2022/04/12 10:28:59;;;;;;;4.70;1.90;;;20.00;66.00;;;;;;5053255;28;20489;-38
2022/04/12 10:31:32;;;;;;;1.97;1.77;;;20.00;65.30;;;;;;5063195;28;20476;-38
2022/04/12 10:34:01;;;;;;;3.63;1.87;;;20.10;66.10;;;;;;5054874;28;20786;-37
2022/04/12 10:37:04;;;;;;;1.80;1.70;;;20.20;67.70;;;;;;5054464;28;20439;-36
2022/04/12 10:39:33;;;;;;;1.60;1.40;;;20.30;64.40;;;;;;5069034;28;20870;-38
2022/04/12 10:42:04;;;;;;;2.80;1.87;;;20.30;64.70;;;;;;5056489;28;20957;-37
2022/04/12 10:44:56;;;;;;;2.50;2.30;;;20.30;63.80;;;;;;5058507;28;20836;-38
2022/04/12 10:47:25;;;;;;;2.60;1.80;;;20.20;63.80;;;;;;5051009;28;20428;-37
2022/04/12 10:50:11;;;;;;;3.80;1.70;;;20.30;64.50;;;;;;5053877;28;20489;-38
2022/04/12 10:52:42;;;;;;;2.97;1.87;;;20.30;63.60;;;;;;5059197;28;20435;-33
2022/04/12 10:55:16;;;;;;;2.13;1.50;;;20.30;61.80;;;;;;5071836;28;20421;-36
2022/04/12 10:57:43;;;;;;;1.50;1.40;;;20.30;62.70;;;;;;5053377;28;20450;-34
2022/04/12 11:00:09;;;;;;;1.90;1.77;;;20.30;63.10;;;;;;5053405;28;20990;-37
2022/04/12 11:03:00;;;;;;;3.00;1.70;;;20.40;63.10;;;;;;5054508;28;20424;-38
2022/04/12 11:05:44;;;;;;;2.03;1.83;;;20.60;64.10;;;;;;5051997;28;20420;-35
2022/04/12 11:08:15;;;;;;;1.97;1.50;;;20.90;62.70;;;;;;5068198;28;20433;-36
2022/04/12 11:11:03;;;;;;;2.20;1.43;;;21.00;62.40;;;;;;5066628;28;20424;-36
2022/04/12 11:13:31;;;;;;;2.03;1.50;;;21.10;62.20;;;;;;5043292;28;20460;-36
2022/04/12 11:16:07;;;;;;;1.50;1.40;;;21.20;63.00;;;;;;5065077;28;20423;-37
2022/04/12 11:18:52;;;;;;;2.30;1.90;;;21.30;61.90;;;;;;5054525;28;20897;-38
2022/04/12 11:21:26;;;;;;;1.50;1.40;;;21.30;61.00;;;;;;5059354;28;21045;-37
2022/04/12 11:23:57;;;;;;;2.90;1.30;;;21.20;62.20;;;;;;5071778;28;20419;-33
2022/04/12 11:26:50;;;;;;;2.20;1.40;;;21.40;63.80;;;;;;5062982;28;20526;-37
2022/04/12 11:29:27;;;;;;;1.50;1.30;;;21.50;63.30;;;;;;5054326;28;20435;-40
2022/04/12 11:31:55;;;;;;;2.73;1.53;;;21.70;62.30;;;;;;5067984;28;20468;-36
2022/04/12 11:34:22;;;;;;;2.03;1.40;;;21.70;61.80;;;;;;5074503;28;21028;-39
2022/04/12 11:36:59;;;;;;;2.63;1.47;;;21.70;62.00;;;;;;5072318;28;20427;-36
2022/04/12 11:39:28;;;;;;;1.53;1.20;;;21.70;61.30;;;;;;5071483;28;20846;-39
2022/04/12 11:41:59;;;;;;;1.60;1.10;;;21.60;59.80;;;;;;5054764;28;20448;-33
2022/04/12 11:44:25;;;;;;;1.23;1.07;;;21.60;59.90;;;;;;5049777;28;20436;-38
2022/04/12 11:46:56;;;;;;;2.90;1.20;;;21.60;59.60;;;;;;5052939;28;20435;-35
2022/04/12 11:49:34;;;;;;;1.90;1.17;;;21.60;59.30;;;;;;5050920;28;20451;-38
2022/04/12 11:52:01;;;;;;;1.37;1.27;;;21.60;59.20;;;;;;5059139;28;20434;-37
2022/04/12 11:54:27;;;;;;;3.00;1.10;;;21.70;61.30;;;;;;5072640;28;20495;-39
2022/04/12 11:57:13;;;;;;;2.13;1.80;;;21.90;61.90;;;;;;5061908;28;20939;-36
2022/04/12 11:59:49;;;;;;;1.50;1.30;;;21.90;59.80;;;;;;5051546;28;20201;-37
2022/04/12 12:02:18;;;;;;;2.43;1.50;;;22.00;60.20;;;;;;5060728;28;20483;-37
2022/04/12 12:04:47;;;;;;;2.50;1.70;;;22.00;59.00;;;;;;5050311;28;20483;-39
2022/04/12 12:07:13;;;;;;;1.57;1.43;;;22.00;59.80;;;;;;5051644;28;20467;-38
2022/04/12 12:09:59;;;;;;;2.07;1.27;;;22.10;59.70;;;;;;5070857;28;20450;-36
2022/04/12 12:12:32;;;;;;;1.63;1.23;;;22.20;59.70;;;;;;5058161;28;20466;-37
2022/04/12 12:14:58;;;;;;;1.70;1.50;;;22.30;58.30;;;;;;5053430;28;20427;-39
2022/04/12 12:17:26;;;;;;;2.27;1.30;;;22.30;59.40;;;;;;5055567;28;20431;-37
2022/04/12 12:19:52;;;;;;;1.87;1.63;;;22.20;57.70;;;;;;5050203;28;21068;-38
2022/04/12 12:22:17;;;;;;;4.50;1.50;;;22.20;57.50;;;;;;5055941;28;20436;-38
2022/04/12 12:24:53;;;;;;;3.00;1.60;;;22.00;57.50;;;;;;5064220;28;20475;-35
2022/04/12 12:27:32;;;;;;;1.83;1.10;;;22.00;58.40;;;;;;5068900;28;20263;-40
2022/04/12 12:30:10;;;;;;;1.53;1.30;;;21.90;57.20;;;;;;5050612;28;20428;-38
2022/04/12 12:32:39;;;;;;;3.70;1.57;;;21.80;56.70;;;;;;5050764;28;20424;-36
2022/04/12 12:35:13;;;;;;;1.50;1.40;;;21.70;56.90;;;;;;5049783;28;20505;-38
2022/04/12 12:37:40;;;;;;;1.43;1.23;;;21.70;57.50;;;;;;5056939;28;20439;-38
2022/04/12 12:40:22;;;;;;;2.40;1.60;;;21.60;57.30;;;;;;5080184;28;20817;-36
2022/04/12 12:42:53;;;;;;;1.63;1.20;;;21.50;56.50;;;;;;5050519;28;20444;-38
2022/04/12 12:45:21;;;;;;;4.13;1.30;;;21.30;56.30;;;;;;5053925;28;20434;-36
2022/04/12 12:47:53;;;;;;;2.30;1.53;;;21.20;56.50;;;;;;5059296;28;20420;-37
2022/04/12 12:50:21;;;;;;;3.20;1.20;;;21.10;56.70;;;;;;5049541;28;20436;-36
2022/04/12 12:52:48;;;;;;;4.50;1.37;;;21.20;57.00;;;;;;5055815;28;20436;-37
2022/04/12 12:55:19;;;;;;;3.60;1.30;;;21.30;56.60;;;;;;5077587;28;20422;-38